createdAt,value
2019-04-04T00:00:17.215Z,99.57
2019-04-04T00:01:17.478Z,98.90
2019-04-04T00:02:19.089Z,99.10
2019-04-04T00:03:17.184Z,99.99
2019-04-04T00:04:17.189Z,99.62
2019-04-04T00:05:17.160Z,99.62
2019-04-04T00:06:17.146Z,99.37
2019-04-04T00:07:17.140Z,99.31
2019-04-04T00:08:17.126Z,99.78
2019-04-04T00:09:17.115Z,99.37
2019-04-04T00:10:17.115Z,99.47
2019-04-04T00:11:17.093Z,99.99
2019-04-04T00:12:17.083Z,99.99
2019-04-04T00:13:17.080Z,99.99
2019-04-04T00:14:17.095Z,99.99
2019-04-04T00:15:17.062Z,99.99
2019-04-04T00:16:17.040Z,99.68
2019-04-04T00:17:17.031Z,99.99
2019-04-04T00:18:17.019Z,99.99
2019-04-04T00:19:17.011Z,99.99
2019-04-04T00:20:17.011Z,99.99
2019-04-04T00:21:16.989Z,99.99
2019-04-04T00:22:16.986Z,99.99
2019-04-04T00:23:16.972Z,99.99
2019-04-04T00:24:16.979Z,99.99
2019-04-04T00:25:16.959Z,99.99
2019-04-04T00:26:16.935Z,99.99
2019-04-04T00:27:16.928Z,99.99
2019-04-04T00:28:16.940Z,99.99
2019-04-04T00:29:17.780Z,99.99
2019-04-04T00:30:17.980Z,99.82
2019-04-04T00:31:18.832Z,99.78
2019-04-04T00:32:16.872Z,99.93
2019-04-04T00:33:16.863Z,99.99
2019-04-04T00:34:16.857Z,99.99
2019-04-04T00:35:16.852Z,99.99
2019-04-04T00:36:16.837Z,99.99
2019-04-04T00:37:16.823Z,99.99
2019-04-04T00:38:16.811Z,99.99
2019-04-04T00:39:16.798Z,99.99
2019-04-04T00:40:16.800Z,99.99
2019-04-04T00:41:16.776Z,99.99
2019-04-04T00:42:17.485Z,99.99
2019-04-04T00:43:16.769Z,99.99
2019-04-04T00:44:16.744Z,99.99
2019-04-04T00:45:16.750Z,99.99
2019-04-04T00:46:16.723Z,99.99
2019-04-04T00:47:16.712Z,99.99
2019-04-04T00:48:16.703Z,99.99
2019-04-04T00:49:16.697Z,99.99
2019-04-04T00:50:16.694Z,99.99
2019-04-04T00:51:16.672Z,99.99
2019-04-04T00:52:16.659Z,99.99
2019-04-04T00:53:16.650Z,99.99
2019-04-04T00:54:16.638Z,99.99
2019-04-04T00:55:16.644Z,99.99
2019-04-04T00:56:18.049Z,99.99
2019-04-04T00:57:17.290Z,99.99
2019-04-04T00:58:16.596Z,99.99
2019-04-04T00:59:16.588Z,99.99
2019-04-04T01:00:16.604Z,99.99
2019-04-04T01:01:16.785Z,99.99
2019-04-04T01:02:16.564Z,99.99
2019-04-04T01:03:16.543Z,99.99
2019-04-04T01:04:16.532Z,99.99
2019-04-04T01:05:16.543Z,99.99
2019-04-04T01:06:16.512Z,99.99
2019-04-04T01:07:16.500Z,99.99
2019-04-04T01:08:16.492Z,99.99
2019-04-04T01:09:16.488Z,99.99
2019-04-04T01:10:18.812Z,99.99
2019-04-04T01:11:18.323Z,99.99
2019-04-04T01:12:16.450Z,99.99
2019-04-04T01:13:16.439Z,99.99
2019-04-04T01:14:16.428Z,99.99
2019-04-04T01:15:16.417Z,99.99
2019-04-04T01:16:16.419Z,99.99
2019-04-04T01:17:16.466Z,99.99
2019-04-04T01:18:16.391Z,99.99
2019-04-04T01:19:16.378Z,99.99
2019-04-04T01:20:18.083Z,99.99
2019-04-04T01:21:16.366Z,99.99
2019-04-04T01:22:16.343Z,99.99
2019-04-04T01:23:16.333Z,99.99
2019-04-04T01:24:16.325Z,99.99
2019-04-04T01:25:16.313Z,99.99
2019-04-04T01:26:16.322Z,99.99
2019-04-04T01:27:16.295Z,99.99
2019-04-04T01:28:16.283Z,99.99
2019-04-04T01:29:16.279Z,99.99
2019-04-04T01:30:16.260Z,99.99
2019-04-04T01:31:16.264Z,99.99
2019-04-04T01:32:17.080Z,99.99
2019-04-04T01:33:16.255Z,99.99
2019-04-04T01:34:16.218Z,99.99
2019-04-04T01:35:16.210Z,99.99
2019-04-04T01:36:16.213Z,99.99
2019-04-04T01:37:16.184Z,99.99
2019-04-04T01:38:16.176Z,99.99
2019-04-04T01:39:16.167Z,99.99
2019-04-04T01:40:16.157Z,99.99
2019-04-04T01:41:16.150Z,99.99
2019-04-04T01:42:16.131Z,99.99
2019-04-04T01:43:16.123Z,99.99
2019-04-04T01:44:16.111Z,99.99
2019-04-04T01:45:16.134Z,99.99
2019-04-04T01:46:16.102Z,99.99
2019-04-04T01:47:17.076Z,99.99
2019-04-04T01:48:18.454Z,99.99
2019-04-04T01:49:16.056Z,99.99
2019-04-04T01:50:16.050Z,99.99
2019-04-04T01:51:16.045Z,99.99
2019-04-04T01:52:16.025Z,99.99
2019-04-04T01:53:16.017Z,99.99
2019-04-04T01:54:16.009Z,99.99
2019-04-04T01:55:15.990Z,99.99
2019-04-04T01:56:15.991Z,99.99
2019-04-04T01:57:15.969Z,99.99
2019-04-04T01:58:15.958Z,99.99
2019-04-04T01:59:15.950Z,99.99
2019-04-04T02:00:15.953Z,99.99
2019-04-04T02:01:16.622Z,99.99
2019-04-04T02:02:17.773Z,99.99
2019-04-04T02:03:15.908Z,99.99
2019-04-04T02:04:15.898Z,99.99
2019-04-04T02:05:15.887Z,99.99
2019-04-04T02:06:15.883Z,99.99
2019-04-04T02:07:15.865Z,99.99
2019-04-04T02:08:15.858Z,99.99
2019-04-04T02:09:15.891Z,99.99
2019-04-04T02:10:15.832Z,99.99
2019-04-04T02:11:15.834Z,99.99
2019-04-04T02:12:15.808Z,99.99
2019-04-04T02:13:15.805Z,99.99
2019-04-04T02:14:15.791Z,99.99
2019-04-04T02:15:15.778Z,99.99
2019-04-04T02:16:16.886Z,99.99
2019-04-04T02:17:15.761Z,99.99
2019-04-04T02:18:15.745Z,99.99
2019-04-04T02:19:15.736Z,99.99
2019-04-04T02:20:15.727Z,99.99
2019-04-04T02:21:15.726Z,99.99
2019-04-04T02:22:15.711Z,99.99
2019-04-04T02:23:15.695Z,99.99
2019-04-04T02:24:15.683Z,99.99
2019-04-04T02:25:15.674Z,99.99
2019-04-04T02:26:15.662Z,99.99
2019-04-04T02:27:15.661Z,99.77
2019-04-04T02:28:15.648Z,99.46
2019-04-04T02:29:15.661Z,99.25
2019-04-04T02:30:16.525Z,99.25
2019-04-04T02:31:15.611Z,99.09
2019-04-04T02:32:15.614Z,98.73
2019-04-04T02:33:15.589Z,98.94
2019-04-04T02:34:15.577Z,98.52
2019-04-04T02:35:15.574Z,99.25
2019-04-04T02:36:16.706Z,98.94
2019-04-04T02:37:15.557Z,98.73
2019-04-04T02:38:15.537Z,99.15
2019-04-04T02:39:15.523Z,99.25
2019-04-04T02:40:15.551Z,98.52
2019-04-04T02:41:16.191Z,98.42
2019-04-04T02:42:15.534Z,99.19
2019-04-04T02:43:15.495Z,98.99
2019-04-04T02:44:15.471Z,98.99
2019-04-04T02:45:15.462Z,99.09
2019-04-04T02:46:15.455Z,98.88
2019-04-04T02:47:17.476Z,98.73
2019-04-04T02:48:15.432Z,97.85
2019-04-04T02:49:15.419Z,97.90
2019-04-04T02:50:15.414Z,98.57
2019-04-04T02:51:15.398Z,98.88
2019-04-04T02:52:15.396Z,98.78
2019-04-04T02:53:19.458Z,99.30
2019-04-04T02:54:15.368Z,99.30
2019-04-04T02:55:15.353Z,99.61
2019-04-04T02:56:15.344Z,98.99
2019-04-04T02:57:15.355Z,99.30
2019-04-04T02:58:15.517Z,98.99
2019-04-04T02:59:20.012Z,99.51
2019-04-04T03:00:16.303Z,99.61
2019-04-04T03:01:15.290Z,99.61
2019-04-04T03:02:15.287Z,99.09
2019-04-04T03:03:15.266Z,99.61
2019-04-04T03:04:15.258Z,99.51
2019-04-04T03:05:18.804Z,99.40
2019-04-04T03:06:15.236Z,99.99
2019-04-04T03:07:15.237Z,99.92
2019-04-04T03:08:15.217Z,99.92
2019-04-04T03:09:15.288Z,99.61
2019-04-04T03:10:16.504Z,99.82
2019-04-04T03:11:15.185Z,99.61
2019-04-04T03:12:15.182Z,99.71
2019-04-04T03:13:23.227Z,99.82
2019-04-04T03:14:15.150Z,99.82
2019-04-04T03:15:15.144Z,99.92
2019-04-04T03:16:15.134Z,99.87
2019-04-04T03:17:15.139Z,99.51
2019-04-04T03:18:15.135Z,99.61
2019-04-04T03:19:15.099Z,99.09
2019-04-04T03:20:17.331Z,99.51
2019-04-04T03:21:15.086Z,99.40
2019-04-04T03:22:15.083Z,99.71
2019-04-04T03:23:15.058Z,99.51
2019-04-04T03:24:15.048Z,99.71
2019-04-04T03:25:15.720Z,99.51
2019-04-04T03:26:19.055Z,99.71
2019-04-04T03:27:16.024Z,99.19
2019-04-04T03:28:15.038Z,99.71
2019-04-04T03:29:14.998Z,99.61
2019-04-04T03:30:17.111Z,99.99
2019-04-04T03:31:14.973Z,99.61
2019-04-04T03:32:16.754Z,99.61
2019-04-04T03:33:14.964Z,99.30
2019-04-04T03:34:14.940Z,99.51
2019-04-04T03:35:14.929Z,99.51
2019-04-04T03:36:14.919Z,99.61
2019-04-04T03:37:14.933Z,99.30
2019-04-04T03:38:14.923Z,99.09
2019-04-04T03:39:19.343Z,99.40
2019-04-04T03:40:15.894Z,99.09
2019-04-04T03:41:14.879Z,98.88
2019-04-04T03:42:14.865Z,99.30
2019-04-04T03:43:16.117Z,99.30
2019-04-04T03:44:15.174Z,99.71
2019-04-04T03:45:14.829Z,99.09
2019-04-04T03:46:14.814Z,99.19
2019-04-04T03:47:14.818Z,99.61
2019-04-04T03:48:17.747Z,99.82
2019-04-04T03:49:14.799Z,99.92
2019-04-04T03:50:14.820Z,99.71
2019-04-04T03:51:14.781Z,99.99
2019-04-04T03:52:14.779Z,99.82
2019-04-04T03:53:17.512Z,99.82
2019-04-04T03:54:14.735Z,99.71
2019-04-04T03:55:15.745Z,99.92
2019-04-04T03:56:14.705Z,99.99
2019-04-04T03:57:14.705Z,99.86
2019-04-04T03:58:14.685Z,99.44
2019-04-04T03:59:14.677Z,99.61
2019-04-04T04:00:14.671Z,99.86
2019-04-04T04:01:14.676Z,99.96
2019-04-04T04:02:17.858Z,99.44
2019-04-04T04:03:14.643Z,99.44
2019-04-04T04:04:14.630Z,99.65
2019-04-04T04:05:14.845Z,99.34
2019-04-04T04:06:14.601Z,99.34
2019-04-04T04:07:15.386Z,99.13
2019-04-04T04:08:14.586Z,99.65
2019-04-04T04:09:14.569Z,99.55
2019-04-04T04:10:14.558Z,99.76
2019-04-04T04:11:14.547Z,99.49
2019-04-04T04:12:14.536Z,99.38
2019-04-04T04:13:17.304Z,99.38
2019-04-04T04:14:14.540Z,99.38
2019-04-04T04:15:14.505Z,99.49
2019-04-04T04:16:14.493Z,99.59
2019-04-04T04:17:14.485Z,99.18
2019-04-04T04:18:14.484Z,98.97
2019-04-04T04:19:14.460Z,98.08
2019-04-04T04:20:14.467Z,97.88
2019-04-04T04:21:14.446Z,98.35
2019-04-04T04:22:18.034Z,98.39
2019-04-04T04:23:14.431Z,98.29
2019-04-04T04:24:14.415Z,98.81
2019-04-04T04:25:14.403Z,98.60
2019-04-04T04:26:14.395Z,98.71
2019-04-04T04:27:15.405Z,99.22
2019-04-04T04:28:14.403Z,98.85
2019-04-04T04:29:14.357Z,98.71
2019-04-04T04:30:14.347Z,99.02
2019-04-04T04:31:15.444Z,99.06
2019-04-04T04:32:14.335Z,99.54
2019-04-04T04:33:14.331Z,99.33
2019-04-04T04:34:14.327Z,98.91
2019-04-04T04:35:14.302Z,99.58
2019-04-04T04:36:15.816Z,99.43
2019-04-04T04:37:14.273Z,99.37
2019-04-04T04:38:14.271Z,99.06
2019-04-04T04:39:14.280Z,98.96
2019-04-04T04:40:15.317Z,98.91
2019-04-04T04:41:14.231Z,99.37
2019-04-04T04:42:14.220Z,99.27
2019-04-04T04:43:15.795Z,99.74
2019-04-04T04:44:14.198Z,99.79
2019-04-04T04:45:14.196Z,99.90
2019-04-04T04:46:16.933Z,99.48
2019-04-04T04:47:14.168Z,99.06
2019-04-04T04:48:14.166Z,99.58
2019-04-04T04:49:14.147Z,99.48
2019-04-04T04:50:14.234Z,99.27
2019-04-04T04:51:14.124Z,99.06
2019-04-04T04:52:15.140Z,99.06
2019-04-04T04:53:14.118Z,98.96
2019-04-04T04:54:14.093Z,98.90
2019-04-04T04:55:14.084Z,99.27
2019-04-04T04:56:17.356Z,99.58
2019-04-04T04:57:28.449Z,99.79
2019-04-04T04:58:15.061Z,99.32
2019-04-04T04:59:14.073Z,99.42
2019-04-04T05:00:16.112Z,99.42
2019-04-04T05:01:14.021Z,99.32
2019-04-04T05:02:14.036Z,99.79
2019-04-04T05:03:14.009Z,99.84
2019-04-04T05:04:13.990Z,99.99
2019-04-04T05:05:14.036Z,99.73
2019-04-04T05:06:13.969Z,99.94
2019-04-04T05:07:13.957Z,99.32
2019-04-04T05:08:13.976Z,99.84
2019-04-04T05:09:14.646Z,99.73
2019-04-04T05:10:15.049Z,99.88
2019-04-04T05:11:14.644Z,99.42
2019-04-04T05:12:13.910Z,99.15
2019-04-04T05:13:13.904Z,99.67
2019-04-04T05:14:13.885Z,99.67
2019-04-04T05:15:13.895Z,99.77
2019-04-04T05:16:13.863Z,99.88
2019-04-04T05:17:13.853Z,99.99
2019-04-04T05:18:14.094Z,99.26
2019-04-04T05:19:13.832Z,99.88
2019-04-04T05:20:13.822Z,99.77
2019-04-04T05:21:24.370Z,99.99
2019-04-04T05:22:14.819Z,99.62
2019-04-04T05:23:15.607Z,99.82
2019-04-04T05:24:13.781Z,99.88
2019-04-04T05:25:13.771Z,99.93
2019-04-04T05:26:13.758Z,99.82
2019-04-04T05:27:13.757Z,99.72
2019-04-04T05:28:13.736Z,99.99
2019-04-04T05:29:14.154Z,99.98
2019-04-04T05:30:15.809Z,99.98
2019-04-04T05:31:13.727Z,99.87
2019-04-04T05:32:13.699Z,99.98
2019-04-04T05:33:13.684Z,99.99
2019-04-04T05:34:13.696Z,99.91
2019-04-04T05:35:15.200Z,99.29
2019-04-04T05:36:13.664Z,99.81
2019-04-04T05:37:13.642Z,99.81
2019-04-04T05:38:13.664Z,99.91
2019-04-04T05:39:13.634Z,99.75
2019-04-04T05:40:13.633Z,99.96
2019-04-04T05:41:16.326Z,99.65
2019-04-04T05:42:13.613Z,99.96
2019-04-04T05:43:15.114Z,99.99
2019-04-04T05:44:13.586Z,99.99
2019-04-04T05:45:14.306Z,99.85
2019-04-04T05:46:13.570Z,99.85
2019-04-04T05:47:13.552Z,99.85
2019-04-04T05:48:13.530Z,99.99
2019-04-04T05:49:13.528Z,99.99
2019-04-04T05:50:16.301Z,99.99
2019-04-04T05:51:15.244Z,99.99
2019-04-04T05:52:13.515Z,99.99
2019-04-04T05:53:13.478Z,99.99
2019-04-04T05:54:13.514Z,99.99
2019-04-04T05:55:13.453Z,99.99
2019-04-04T05:56:15.221Z,99.99
2019-04-04T05:57:13.435Z,99.99
2019-04-04T05:58:13.422Z,99.99
2019-04-04T05:59:13.426Z,99.99
2019-04-04T06:00:13.414Z,99.99
2019-04-04T06:01:13.418Z,99.99
2019-04-04T06:02:13.392Z,99.99
2019-04-04T06:03:15.202Z,99.99
2019-04-04T06:04:13.381Z,99.99
2019-04-04T06:05:13.364Z,99.99
2019-04-04T06:06:13.358Z,99.99
2019-04-04T06:07:16.261Z,99.99
2019-04-04T06:08:13.317Z,99.99
2019-04-04T06:09:14.680Z,99.99
2019-04-04T06:10:13.299Z,99.99
2019-04-04T06:11:13.292Z,99.99
2019-04-04T06:12:13.275Z,99.99
2019-04-04T06:13:13.269Z,99.99
2019-04-04T06:14:13.265Z,99.99
2019-04-04T06:15:13.274Z,99.99
2019-04-04T06:16:13.242Z,99.99
2019-04-04T06:17:13.224Z,99.99
2019-04-04T06:18:13.214Z,99.99
2019-04-04T06:19:14.831Z,99.99
2019-04-04T06:20:14.976Z,99.99
2019-04-04T06:21:13.183Z,99.99
2019-04-04T06:22:13.171Z,99.99
2019-04-04T06:23:13.167Z,99.99
2019-04-04T06:24:13.151Z,99.99
2019-04-04T06:25:13.156Z,99.99
2019-04-04T06:26:13.136Z,99.99
2019-04-04T06:27:13.121Z,99.99
2019-04-04T06:28:13.107Z,99.99
2019-04-04T06:29:13.099Z,99.99
2019-04-04T06:30:13.101Z,99.99
2019-04-04T06:31:13.098Z,99.99
2019-04-04T06:32:13.069Z,99.99
2019-04-04T06:33:13.057Z,99.99
2019-04-04T06:34:13.051Z,99.99
2019-04-04T06:35:13.228Z,99.99
2019-04-04T06:36:13.024Z,99.99
2019-04-04T06:37:13.014Z,99.99
2019-04-04T06:38:13.005Z,99.99
2019-04-04T06:39:12.999Z,99.99
2019-04-04T06:40:12.996Z,99.99
2019-04-04T06:41:12.975Z,99.99
2019-04-04T06:42:12.962Z,99.99
2019-04-04T06:43:12.958Z,99.99
2019-04-04T06:44:13.640Z,99.99
2019-04-04T06:45:15.213Z,99.99
2019-04-04T06:46:12.922Z,99.99
2019-04-04T06:47:12.911Z,99.99
2019-04-04T06:48:12.899Z,99.99
2019-04-04T06:49:12.900Z,99.99
2019-04-04T06:50:12.890Z,99.99
2019-04-04T06:51:14.337Z,99.99
2019-04-04T06:52:12.880Z,99.99
2019-04-04T06:53:12.848Z,99.99
2019-04-04T06:54:12.837Z,99.99
2019-04-04T06:55:12.847Z,99.99
2019-04-04T06:56:12.877Z,99.99
2019-04-04T06:57:12.816Z,99.99
2019-04-04T06:58:12.797Z,99.99
2019-04-04T06:59:12.866Z,99.99
2019-04-04T07:00:15.513Z,99.99
2019-04-04T07:01:12.767Z,99.99
2019-04-04T07:02:12.774Z,99.99
2019-04-04T07:03:12.754Z,99.99
2019-04-04T07:04:12.732Z,99.99
2019-04-04T07:05:12.731Z,99.99
2019-04-04T07:06:12.739Z,99.99
2019-04-04T07:07:13.147Z,99.99
2019-04-04T07:08:14.953Z,99.99
2019-04-04T07:09:13.552Z,99.99
2019-04-04T07:10:12.685Z,99.99
2019-04-04T07:11:21.108Z,99.99
2019-04-04T07:12:21.890Z,99.99
2019-04-04T07:13:21.512Z,99.99
2019-04-04T07:14:13.656Z,99.99
2019-04-04T07:15:15.719Z,99.99
2019-04-04T07:16:12.615Z,99.99
2019-04-04T07:17:12.615Z,99.99
2019-04-04T07:18:12.986Z,99.99
2019-04-04T07:19:14.991Z,99.99
2019-04-04T07:20:12.610Z,99.99
2019-04-04T07:21:12.598Z,99.99
2019-04-04T07:22:12.614Z,99.99
2019-04-04T07:23:14.373Z,99.99
2019-04-04T07:24:12.559Z,99.99
2019-04-04T07:25:12.594Z,99.99
2019-04-04T07:26:14.850Z,99.99
2019-04-04T07:27:15.944Z,99.99
2019-04-04T07:28:12.491Z,99.99
2019-04-04T07:29:12.472Z,99.66
2019-04-04T07:30:15.255Z,99.91
2019-04-04T07:31:12.461Z,99.99
2019-04-04T07:32:12.438Z,99.60
2019-04-04T07:33:12.925Z,99.60
2019-04-04T07:34:13.743Z,99.76
2019-04-04T07:35:12.408Z,99.66
2019-04-04T07:36:12.410Z,99.30
2019-04-04T07:37:12.385Z,99.55
2019-04-04T07:38:12.377Z,99.62
2019-04-04T07:39:12.546Z,99.51
2019-04-04T07:40:12.354Z,99.20
2019-04-04T07:41:14.677Z,98.99
2019-04-04T07:42:15.541Z,98.57
2019-04-04T07:43:12.324Z,98.88
2019-04-04T07:44:12.321Z,98.57
2019-04-04T07:45:14.367Z,98.26
2019-04-04T07:46:16.555Z,98.26
2019-04-04T07:47:15.796Z,98.26
2019-04-04T07:48:12.482Z,98.47
2019-04-04T07:49:12.260Z,98.36
2019-04-04T07:50:12.284Z,98.57
2019-04-04T07:51:12.250Z,98.68
2019-04-04T07:52:12.231Z,99.05
2019-04-04T07:53:12.226Z,99.30
2019-04-04T07:54:12.209Z,98.84
2019-04-04T07:55:12.219Z,98.74
2019-04-04T07:56:14.228Z,98.74
2019-04-04T07:57:12.188Z,98.68
2019-04-04T07:58:12.169Z,98.68
2019-04-04T07:59:12.170Z,99.05
2019-04-04T08:00:12.147Z,98.88
2019-04-04T08:01:12.150Z,99.20
2019-04-04T08:02:12.125Z,99.26
2019-04-04T08:03:12.115Z,99.41
2019-04-04T08:04:12.121Z,99.04
2019-04-04T08:05:13.330Z,99.10
2019-04-04T08:06:12.106Z,99.10
2019-04-04T08:07:12.087Z,99.10
2019-04-04T08:08:12.089Z,98.88
2019-04-04T08:09:12.055Z,99.10
2019-04-04T08:10:20.472Z,99.72
2019-04-04T08:11:13.414Z,99.46
2019-04-04T08:12:12.025Z,99.62
2019-04-04T08:13:12.026Z,99.36
2019-04-04T08:14:12.002Z,99.52
2019-04-04T08:15:12.000Z,99.57
2019-04-04T08:16:11.991Z,99.57
2019-04-04T08:17:11.976Z,99.63
2019-04-04T08:18:11.960Z,99.52
2019-04-04T08:19:11.948Z,99.01
2019-04-04T08:20:11.938Z,99.11
2019-04-04T08:21:11.963Z,99.01
2019-04-04T08:22:12.068Z,99.01
2019-04-04T08:23:11.956Z,98.07
2019-04-04T08:24:11.913Z,98.90
2019-04-04T08:25:11.885Z,98.07
2019-04-04T08:26:11.886Z,98.07
2019-04-04T08:27:11.865Z,99.01
2019-04-04T08:28:11.859Z,99.01
2019-04-04T08:29:11.847Z,99.11
2019-04-04T08:30:11.836Z,99.11
2019-04-04T08:31:11.849Z,99.01
2019-04-04T08:32:11.815Z,98.90
2019-04-04T08:33:11.807Z,98.90
2019-04-04T08:34:11.797Z,98.90
2019-04-04T08:35:11.790Z,99.11
2019-04-04T08:36:11.792Z,99.52
2019-04-04T08:37:11.774Z,99.63
2019-04-04T08:38:11.750Z,99.42
2019-04-04T08:39:11.739Z,99.32
2019-04-04T08:40:11.731Z,99.63
2019-04-04T08:41:11.719Z,99.11
2019-04-04T08:42:11.719Z,99.58
2019-04-04T08:43:11.717Z,99.32
2019-04-04T08:44:11.690Z,99.52
2019-04-04T08:45:11.675Z,99.52
2019-04-04T08:46:11.672Z,99.32
2019-04-04T08:47:11.666Z,99.42
2019-04-04T08:48:11.671Z,99.73
2019-04-04T08:49:11.634Z,99.99
2019-04-04T08:50:11.653Z,99.94
2019-04-04T08:51:11.621Z,99.99
2019-04-04T08:52:16.884Z,99.63
2019-04-04T08:53:12.593Z,99.94
2019-04-04T08:54:11.587Z,99.73
2019-04-04T08:55:11.603Z,99.52
2019-04-04T08:56:11.566Z,99.77
2019-04-04T08:57:11.562Z,99.46
2019-04-04T08:58:11.540Z,99.42
2019-04-04T08:59:11.553Z,99.46
2019-04-04T09:00:11.519Z,99.15
2019-04-04T09:01:11.509Z,99.05
2019-04-04T09:02:11.511Z,99.26
2019-04-04T09:03:11.499Z,99.15
2019-04-04T09:04:11.479Z,98.78
2019-04-04T09:05:12.624Z,98.78
2019-04-04T09:06:11.456Z,98.78
2019-04-04T09:07:11.456Z,98.74
2019-04-04T09:08:11.436Z,98.99
2019-04-04T09:09:11.482Z,99.10
2019-04-04T09:10:11.415Z,99.24
2019-04-04T09:11:11.415Z,99.51
2019-04-04T09:12:11.405Z,98.99
2019-04-04T09:13:11.383Z,98.57
2019-04-04T09:14:11.373Z,99.41
2019-04-04T09:15:11.390Z,99.62
2019-04-04T09:16:11.354Z,99.41
2019-04-04T09:17:11.355Z,99.41
2019-04-04T09:18:11.333Z,99.10
2019-04-04T09:19:11.322Z,99.45
2019-04-04T09:20:11.310Z,98.72
2019-04-04T09:21:11.301Z,99.45
2019-04-04T09:22:11.750Z,99.35
2019-04-04T09:23:11.279Z,99.20
2019-04-04T09:24:11.271Z,99.14
2019-04-04T09:25:11.259Z,99.08
2019-04-04T09:26:11.248Z,99.40
2019-04-04T09:27:11.252Z,99.50
2019-04-04T09:28:11.231Z,99.40
2019-04-04T09:29:11.270Z,99.14
2019-04-04T09:30:11.207Z,99.24
2019-04-04T09:31:11.200Z,99.35
2019-04-04T09:32:11.196Z,99.29
2019-04-04T09:33:11.186Z,99.08
2019-04-04T09:34:11.171Z,99.18
2019-04-04T09:35:11.158Z,99.18
2019-04-04T09:36:11.147Z,99.50
2019-04-04T09:37:11.146Z,99.50
2019-04-04T09:38:11.166Z,99.18
2019-04-04T09:39:11.114Z,99.08
2019-04-04T09:40:11.104Z,99.29
2019-04-04T09:41:11.131Z,99.18
2019-04-04T09:42:11.107Z,99.29
2019-04-04T09:43:11.123Z,99.40
2019-04-04T09:44:11.062Z,99.18
2019-04-04T09:45:11.123Z,98.97
2019-04-04T09:46:11.052Z,99.18
2019-04-04T09:47:11.041Z,99.13
2019-04-04T09:48:11.031Z,98.87
2019-04-04T09:49:12.973Z,98.97
2019-04-04T09:50:11.110Z,98.56
2019-04-04T09:51:11.012Z,98.56
2019-04-04T09:52:11.010Z,98.66
2019-04-04T09:53:10.999Z,98.62
2019-04-04T09:54:10.969Z,98.31
2019-04-04T09:55:10.946Z,97.89
2019-04-04T09:56:10.935Z,97.47
2019-04-04T09:57:10.935Z,97.72
2019-04-04T09:58:10.914Z,97.72
2019-04-04T09:59:10.916Z,98.31
2019-04-04T10:00:10.893Z,98.05
2019-04-04T10:01:10.885Z,97.01
2019-04-04T10:02:10.887Z,97.38
2019-04-04T10:03:10.941Z,96.86
2019-04-04T10:04:10.851Z,96.66
2019-04-04T10:05:10.856Z,95.89
2019-04-04T10:06:10.844Z,95.99
2019-04-04T10:07:10.831Z,95.57
2019-04-04T10:08:10.809Z,95.47
2019-04-04T10:09:15.801Z,95.42
2019-04-04T10:10:11.789Z,95.11
2019-04-04T10:11:10.783Z,95.21
2019-04-04T10:12:10.781Z,94.90
2019-04-04T10:13:10.775Z,95.32
2019-04-04T10:14:10.744Z,95.47
2019-04-04T10:15:10.734Z,95.89
2019-04-04T10:16:10.724Z,95.89
2019-04-04T10:17:10.768Z,95.57
2019-04-04T10:18:10.705Z,95.53
2019-04-04T10:19:10.693Z,95.90
2019-04-04T10:20:10.682Z,96.21
2019-04-04T10:21:12.150Z,95.65
2019-04-04T10:22:10.661Z,95.79
2019-04-04T10:23:13.069Z,94.92
2019-04-04T10:24:10.650Z,95.13
2019-04-04T10:25:10.645Z,95.29
2019-04-04T10:26:10.618Z,95.29
2019-04-04T10:27:10.616Z,95.19
2019-04-04T10:28:10.607Z,95.61
2019-04-04T10:29:10.617Z,95.29
2019-04-04T10:30:10.578Z,95.04
2019-04-04T10:31:10.574Z,94.42
2019-04-04T10:32:10.554Z,93.53
2019-04-04T10:33:10.554Z,94.05
2019-04-04T10:34:10.534Z,93.99
2019-04-04T10:35:10.538Z,94.61
2019-04-04T10:36:10.513Z,94.61
2019-04-04T10:37:10.503Z,94.76
2019-04-04T10:38:10.504Z,94.38
2019-04-04T10:39:10.481Z,95.84
2019-04-04T10:40:10.470Z,95.84
2019-04-04T10:41:10.477Z,95.78
2019-04-04T10:42:10.454Z,96.47
2019-04-04T10:43:10.500Z,96.88
2019-04-04T10:44:10.427Z,97.30
2019-04-04T10:45:10.421Z,96.73
2019-04-04T10:46:10.407Z,97.14
2019-04-04T10:47:10.416Z,97.40
2019-04-04T10:48:10.396Z,97.25
2019-04-04T10:49:10.375Z,96.88
2019-04-04T10:50:10.372Z,96.57
2019-04-04T10:51:10.352Z,97.13
2019-04-04T10:52:10.343Z,97.65
2019-04-04T10:53:10.343Z,97.13
2019-04-04T10:54:10.334Z,97.13
2019-04-04T10:55:10.313Z,97.44
2019-04-04T10:56:10.302Z,98.27
2019-04-04T10:57:10.291Z,97.96
2019-04-04T10:58:10.291Z,97.86
2019-04-04T10:59:10.268Z,97.86
2019-04-04T11:00:10.283Z,98.07
2019-04-04T11:01:10.247Z,98.07
2019-04-04T11:02:10.300Z,97.70
2019-04-04T11:03:10.243Z,97.75
2019-04-04T11:04:10.220Z,98.17
2019-04-04T11:05:10.206Z,98.80
2019-04-04T11:06:10.218Z,98.69
2019-04-04T11:07:10.186Z,98.80
2019-04-04T11:08:10.188Z,98.27
2019-04-04T11:09:10.162Z,98.43
2019-04-04T11:10:10.165Z,98.90
2019-04-04T11:11:10.144Z,99.21
2019-04-04T11:12:10.137Z,99.63
2019-04-04T11:13:10.134Z,99.32
2019-04-04T11:14:10.116Z,99.37
2019-04-04T11:15:10.115Z,98.65
2019-04-04T11:16:10.089Z,98.38
2019-04-04T11:17:10.080Z,98.32
2019-04-04T11:18:10.127Z,99.46
2019-04-04T11:19:10.057Z,99.52
2019-04-04T11:20:10.047Z,99.32
2019-04-04T11:21:10.047Z,99.63
2019-04-04T11:22:10.025Z,99.32
2019-04-04T11:23:10.025Z,99.42
2019-04-04T11:24:10.020Z,99.21
2019-04-04T11:25:09.997Z,99.01
2019-04-04T11:26:09.983Z,99.42
2019-04-04T11:27:09.971Z,99.52
2019-04-04T11:28:09.989Z,99.52
2019-04-04T11:29:09.951Z,99.42
2019-04-04T11:30:09.951Z,99.68
2019-04-04T11:31:10.239Z,99.48
2019-04-04T11:32:09.920Z,99.90
2019-04-04T11:33:09.924Z,99.48
2019-04-04T11:34:09.898Z,99.27
2019-04-04T11:35:09.888Z,99.21
2019-04-04T11:36:09.888Z,98.90
2019-04-04T11:37:09.868Z,99.01
2019-04-04T11:38:09.875Z,98.90
2019-04-04T11:39:09.848Z,98.38
2019-04-04T11:40:09.836Z,99.21
2019-04-04T11:41:09.824Z,99.15
2019-04-04T11:42:09.824Z,98.90
2019-04-04T11:43:09.833Z,99.32
2019-04-04T11:44:09.793Z,99.52
2019-04-04T11:45:09.783Z,99.52
2019-04-04T11:46:09.776Z,99.11
2019-04-04T11:47:09.761Z,98.90
2019-04-04T11:48:09.801Z,99.11
2019-04-04T11:49:09.742Z,99.21
2019-04-04T11:50:09.729Z,99.05
2019-04-04T11:51:12.170Z,98.48
2019-04-04T11:52:16.744Z,98.27
2019-04-04T11:53:09.709Z,98.17
2019-04-04T11:54:09.689Z,98.17
2019-04-04T11:55:09.743Z,98.38
2019-04-04T11:56:09.669Z,98.74
2019-04-04T11:57:09.656Z,98.38
2019-04-04T11:58:09.656Z,98.53
2019-04-04T11:59:09.639Z,98.11
2019-04-04T12:00:09.628Z,98.59
2019-04-04T12:01:09.624Z,98.17
2019-04-04T12:02:09.603Z,97.55
2019-04-04T12:03:09.620Z,98.17
2019-04-04T12:04:09.582Z,97.03
2019-04-04T12:05:09.573Z,97.44
2019-04-04T12:06:09.566Z,97.40
2019-04-04T12:07:09.550Z,96.98
2019-04-04T12:08:09.540Z,97.14
2019-04-04T12:09:09.540Z,96.83
2019-04-04T12:10:09.519Z,96.62
2019-04-04T12:11:09.509Z,96.83
2019-04-04T12:12:09.506Z,97.25
2019-04-04T12:13:09.486Z,96.47
2019-04-04T12:14:09.492Z,95.90
2019-04-04T12:15:09.466Z,95.79
2019-04-04T12:16:09.454Z,96.62
2019-04-04T12:17:09.443Z,96.83
2019-04-04T12:18:09.436Z,96.69
2019-04-04T12:19:09.441Z,95.86
2019-04-04T12:20:09.423Z,95.65
2019-04-04T12:21:09.401Z,95.03
2019-04-04T12:22:11.797Z,94.51
2019-04-04T12:23:09.379Z,94.55
2019-04-04T12:24:09.378Z,94.30
2019-04-04T12:25:09.358Z,94.67
2019-04-04T12:26:09.358Z,94.88
2019-04-04T12:27:09.337Z,95.25
2019-04-04T12:28:09.326Z,94.84
2019-04-04T12:29:09.372Z,95.25
2019-04-04T12:30:09.307Z,94.21
2019-04-04T12:31:09.295Z,94.94
2019-04-04T12:32:09.286Z,94.21
2019-04-04T12:33:09.279Z,94.37
2019-04-04T12:34:09.275Z,94.48
2019-04-04T12:35:09.255Z,93.44
2019-04-04T12:36:09.241Z,93.90
2019-04-04T12:37:09.236Z,94.11
2019-04-04T12:38:09.221Z,93.90
2019-04-04T12:39:09.227Z,93.84
2019-04-04T12:40:20.031Z,93.95
2019-04-04T12:41:10.199Z,94.67
2019-04-04T12:42:09.180Z,95.09
2019-04-04T12:43:09.167Z,95.67
2019-04-04T12:44:09.169Z,95.46
2019-04-04T12:45:09.146Z,95.67
2019-04-04T12:46:09.136Z,95.25
2019-04-04T12:47:09.137Z,95.62
2019-04-04T12:48:09.373Z,94.68
2019-04-04T12:49:09.115Z,95.04
2019-04-04T12:50:09.095Z,95.41
2019-04-04T12:51:09.083Z,95.06
2019-04-04T12:52:09.073Z,95.43